sensor_id;sensor_type;location;lat;lon;timestamp;P1;durP1;ratioP1;P2;durP2;ratioP2
67889;SDS011;54685;52.082;5.426;2023-03-14T00:01:15;13.45;;;3.60;;
67889;SDS011;54685;52.082;5.426;2023-03-14T00:03:44;16.75;;;3.75;;
67889;SDS011;54685;52.082;5.426;2023-03-14T00:06:12;16.20;;;3.40;;
67889;SDS011;54685;52.082;5.426;2023-03-14T00:08:42;14.82;;;3.47;;
67889;SDS011;54685;52.082;5.426;2023-03-14T00:11:14;13.50;;;3.15;;
67889;SDS011;54685;52.082;5.426;2023-03-14T00:13:46;14.15;;;3.70;;
67889;SDS011;54685;52.082;5.426;2023-03-14T00:16:14;16.63;;;3.30;;
67889;SDS011;54685;52.082;5.426;2023-03-14T00:18:41;14.43;;;3.17;;
67889;SDS011;54685;52.082;5.426;2023-03-14T00:21:08;17.88;;;3.95;;
67889;SDS011;54685;52.082;5.426;2023-03-14T00:23:37;17.15;;;3.25;;
67889;SDS011;54685;52.082;5.426;2023-03-14T00:26:07;12.05;;;3.13;;
67889;SDS011;54685;52.082;5.426;2023-03-14T00:28:36;10.32;;;3.05;;
67889;SDS011;54685;52.082;5.426;2023-03-14T00:31:07;17.45;;;3.03;;
67889;SDS011;54685;52.082;5.426;2023-03-14T00:33:36;10.40;;;2.30;;
67889;SDS011;54685;52.082;5.426;2023-03-14T00:36:04;10.35;;;1.77;;
67889;SDS011;54685;52.082;5.426;2023-03-14T00:38:36;19.60;;;2.58;;
67889;SDS011;54685;52.082;5.426;2023-03-14T00:41:05;15.48;;;2.75;;
67889;SDS011;54685;52.082;5.426;2023-03-14T00:43:33;14.85;;;2.60;;
67889;SDS011;54685;52.082;5.426;2023-03-14T00:46:01;22.10;;;3.03;;
67889;SDS011;54685;52.082;5.426;2023-03-14T00:48:28;14.48;;;2.75;;
67889;SDS011;54685;52.082;5.426;2023-03-14T00:50:56;14.52;;;2.50;;
67889;SDS011;54685;52.082;5.426;2023-03-14T00:53:23;15.25;;;3.00;;
67889;SDS011;54685;52.082;5.426;2023-03-14T00:55:51;12.60;;;2.45;;
67889;SDS011;54685;52.082;5.426;2023-03-14T00:58:18;10.85;;;1.98;;
67889;SDS011;54685;52.082;5.426;2023-03-14T01:00:45;12.50;;;2.50;;
67889;SDS011;54685;52.082;5.426;2023-03-14T01:03:13;17.20;;;2.47;;
67889;SDS011;54685;52.082;5.426;2023-03-14T01:05:41;9.30;;;1.70;;
67889;SDS011;54685;52.082;5.426;2023-03-14T01:08:08;7.70;;;1.70;;
67889;SDS011;54685;52.082;5.426;2023-03-14T01:10:39;12.32;;;1.60;;
67889;SDS011;54685;52.082;5.426;2023-03-14T01:13:07;7.82;;;1.60;;
67889;SDS011;54685;52.082;5.426;2023-03-14T01:15:35;11.18;;;1.85;;
67889;SDS011;54685;52.082;5.426;2023-03-14T01:18:04;15.05;;;2.33;;
67889;SDS011;54685;52.082;5.426;2023-03-14T01:20:31;7.68;;;1.88;;
67889;SDS011;54685;52.082;5.426;2023-03-14T01:22:58;8.57;;;1.48;;
67889;SDS011;54685;52.082;5.426;2023-03-14T01:25:25;9.38;;;1.75;;
67889;SDS011;54685;52.082;5.426;2023-03-14T01:27:53;6.53;;;1.80;;
67889;SDS011;54685;52.082;5.426;2023-03-14T01:30:21;5.18;;;1.25;;
67889;SDS011;54685;52.082;5.426;2023-03-14T01:32:48;8.10;;;1.42;;
67889;SDS011;54685;52.082;5.426;2023-03-14T01:35:15;6.57;;;1.50;;
67889;SDS011;54685;52.082;5.426;2023-03-14T01:37:44;6.63;;;1.50;;
67889;SDS011;54685;52.082;5.426;2023-03-14T01:40:16;11.73;;;1.77;;
67889;SDS011;54685;52.082;5.426;2023-03-14T01:42:45;9.45;;;1.75;;
67889;SDS011;54685;52.082;5.426;2023-03-14T01:48:28;12.65;;;1.83;;
67889;SDS011;54685;52.082;5.426;2023-03-14T01:51:11;10.05;;;1.77;;
67889;SDS011;54685;52.082;5.426;2023-03-14T01:53:41;8.05;;;1.83;;
67889;SDS011;54685;52.082;5.426;2023-03-14T01:56:10;11.55;;;2.30;;
67889;SDS011;54685;52.082;5.426;2023-03-14T01:58:40;13.45;;;1.92;;
67889;SDS011;54685;52.082;5.426;2023-03-14T02:01:11;13.73;;;2.38;;
67889;SDS011;54685;52.082;5.426;2023-03-14T02:03:44;11.27;;;2.03;;
67889;SDS011;54685;52.082;5.426;2023-03-14T02:06:15;7.63;;;1.60;;
67889;SDS011;54685;52.082;5.426;2023-03-14T02:08:46;7.57;;;1.58;;
67889;SDS011;54685;52.082;5.426;2023-03-14T02:11:19;10.65;;;1.95;;
67889;SDS011;54685;52.082;5.426;2023-03-14T02:13:55;14.60;;;1.77;;
67889;SDS011;54685;52.082;5.426;2023-03-14T02:16:30;13.40;;;2.00;;
67889;SDS011;54685;52.082;5.426;2023-03-14T02:19:20;11.90;;;1.90;;
67889;SDS011;54685;52.082;5.426;2023-03-14T02:22:21;5.60;;;1.15;;
67889;SDS011;54685;52.082;5.426;2023-03-14T02:25:04;20.67;;;2.00;;
67889;SDS011;54685;52.082;5.426;2023-03-14T02:27:35;9.13;;;1.50;;
67889;SDS011;54685;52.082;5.426;2023-03-14T02:30:08;11.85;;;2.05;;
67889;SDS011;54685;52.082;5.426;2023-03-14T02:32:43;10.70;;;2.33;;
67889;SDS011;54685;52.082;5.426;2023-03-14T02:35:21;9.05;;;2.10;;
67889;SDS011;54685;52.082;5.426;2023-03-14T02:38:02;9.60;;;1.98;;
67889;SDS011;54685;52.082;5.426;2023-03-14T02:40:35;12.32;;;2.20;;
67889;SDS011;54685;52.082;5.426;2023-03-14T02:43:02;9.07;;;1.95;;
67889;SDS011;54685;52.082;5.426;2023-03-14T02:48:08;10.77;;;2.03;;
67889;SDS011;54685;52.082;5.426;2023-03-14T02:50:39;12.25;;;2.47;;
67889;SDS011;54685;52.082;5.426;2023-03-14T02:53:08;6.28;;;1.88;;
67889;SDS011;54685;52.082;5.426;2023-03-14T02:55:35;8.65;;;2.40;;
67889;SDS011;54685;52.082;5.426;2023-03-14T02:58:09;7.68;;;1.92;;
67889;SDS011;54685;52.082;5.426;2023-03-14T03:00:36;8.75;;;2.30;;
67889;SDS011;54685;52.082;5.426;2023-03-14T03:03:09;8.95;;;2.30;;
67889;SDS011;54685;52.082;5.426;2023-03-14T03:05:37;10.60;;;2.20;;
67889;SDS011;54685;52.082;5.426;2023-03-14T03:08:05;8.77;;;2.15;;
67889;SDS011;54685;52.082;5.426;2023-03-14T03:10:32;13.48;;;2.25;;
67889;SDS011;54685;52.082;5.426;2023-03-14T03:13:00;11.70;;;2.55;;
67889;SDS011;54685;52.082;5.426;2023-03-14T03:15:27;8.95;;;2.20;;
67889;SDS011;54685;52.082;5.426;2023-03-14T03:17:55;7.18;;;1.75;;
67889;SDS011;54685;52.082;5.426;2023-03-14T03:20:22;9.27;;;1.90;;
67889;SDS011;54685;52.082;5.426;2023-03-14T03:22:49;13.35;;;2.20;;
67889;SDS011;54685;52.082;5.426;2023-03-14T03:25:17;9.65;;;2.35;;
67889;SDS011;54685;52.082;5.426;2023-03-14T03:27:44;9.50;;;2.03;;
67889;SDS011;54685;52.082;5.426;2023-03-14T03:30:16;8.93;;;1.90;;
67889;SDS011;54685;52.082;5.426;2023-03-14T03:32:43;12.35;;;2.17;;
67889;SDS011;54685;52.082;5.426;2023-03-14T03:35:11;7.45;;;1.60;;
67889;SDS011;54685;52.082;5.426;2023-03-14T03:37:40;8.90;;;2.17;;
67889;SDS011;54685;52.082;5.426;2023-03-14T03:40:08;9.43;;;2.17;;
67889;SDS011;54685;52.082;5.426;2023-03-14T03:42:36;8.32;;;1.83;;
67889;SDS011;54685;52.082;5.426;2023-03-14T03:45:06;9.20;;;2.03;;
67889;SDS011;54685;52.082;5.426;2023-03-14T03:47:38;7.38;;;2.10;;
67889;SDS011;54685;52.082;5.426;2023-03-14T03:50:06;7.22;;;1.95;;
67889;SDS011;54685;52.082;5.426;2023-03-14T03:52:33;13.15;;;2.72;;
67889;SDS011;54685;52.082;5.426;2023-03-14T03:55:00;11.52;;;1.90;;
67889;SDS011;54685;52.082;5.426;2023-03-14T03:57:27;12.40;;;2.55;;
67889;SDS011;54685;52.082;5.426;2023-03-14T03:59:55;14.25;;;3.90;;
67889;SDS011;54685;52.082;5.426;2023-03-14T04:02:22;14.73;;;2.30;;
67889;SDS011;54685;52.082;5.426;2023-03-14T04:04:50;9.32;;;2.03;;
67889;SDS011;54685;52.082;5.426;2023-03-14T04:07:17;12.68;;;2.40;;
67889;SDS011;54685;52.082;5.426;2023-03-14T04:09:44;14.48;;;2.28;;
67889;SDS011;54685;52.082;5.426;2023-03-14T04:12:44;9.45;;;2.25;;
67889;SDS011;54685;52.082;5.426;2023-03-14T04:15:16;13.32;;;1.90;;
67889;SDS011;54685;52.082;5.426;2023-03-14T04:17:46;11.10;;;2.40;;
67889;SDS011;54685;52.082;5.426;2023-03-14T04:20:14;7.82;;;1.70;;
67889;SDS011;54685;52.082;5.426;2023-03-14T04:22:41;8.68;;;1.77;;
67889;SDS011;54685;52.082;5.426;2023-03-14T04:25:10;9.23;;;1.98;;
67889;SDS011;54685;52.082;5.426;2023-03-14T04:27:42;11.98;;;1.98;;
67889;SDS011;54685;52.082;5.426;2023-03-14T04:30:17;11.23;;;2.45;;
67889;SDS011;54685;52.082;5.426;2023-03-14T04:33:11;10.93;;;2.15;;
67889;SDS011;54685;52.082;5.426;2023-03-14T04:35:45;12.02;;;1.90;;
67889;SDS011;54685;52.082;5.426;2023-03-14T04:38:14;12.05;;;2.25;;
67889;SDS011;54685;52.082;5.426;2023-03-14T04:40:44;13.40;;;2.10;;
67889;SDS011;54685;52.082;5.426;2023-03-14T04:43:12;9.95;;;2.10;;
67889;SDS011;54685;52.082;5.426;2023-03-14T04:45:49;14.15;;;1.70;;
67889;SDS011;54685;52.082;5.426;2023-03-14T04:48:17;14.50;;;2.25;;
67889;SDS011;54685;52.082;5.426;2023-03-14T04:50:44;10.82;;;1.88;;
67889;SDS011;54685;52.082;5.426;2023-03-14T04:53:13;9.77;;;2.05;;
67889;SDS011;54685;52.082;5.426;2023-03-14T04:55:47;9.68;;;2.30;;
67889;SDS011;54685;52.082;5.426;2023-03-14T04:58:16;10.25;;;2.08;;
67889;SDS011;54685;52.082;5.426;2023-03-14T05:00:45;6.25;;;1.70;;
67889;SDS011;54685;52.082;5.426;2023-03-14T05:03:31;8.32;;;2.15;;
67889;SDS011;54685;52.082;5.426;2023-03-14T05:06:07;7.50;;;1.88;;
67889;SDS011;54685;52.082;5.426;2023-03-14T05:08:57;8.70;;;2.13;;
67889;SDS011;54685;52.082;5.426;2023-03-14T05:11:51;8.15;;;2.25;;
67889;SDS011;54685;52.082;5.426;2023-03-14T05:14:56;9.45;;;1.70;;
67889;SDS011;54685;52.082;5.426;2023-03-14T05:20:26;10.10;;;3.08;;
67889;SDS011;54685;52.082;5.426;2023-03-14T05:23:16;7.45;;;2.25;;
67889;SDS011;54685;52.082;5.426;2023-03-14T05:26:06;8.02;;;2.45;;
67889;SDS011;54685;52.082;5.426;2023-03-14T05:28:33;9.85;;;2.60;;
67889;SDS011;54685;52.082;5.426;2023-03-14T05:31:23;13.00;;;2.95;;
67889;SDS011;54685;52.082;5.426;2023-03-14T05:33:57;8.85;;;2.80;;
67889;SDS011;54685;52.082;5.426;2023-03-14T05:36:47;12.80;;;3.13;;
67889;SDS011;54685;52.082;5.426;2023-03-14T05:39:31;11.20;;;3.28;;
67889;SDS011;54685;52.082;5.426;2023-03-14T05:42:18;12.25;;;3.55;;
67889;SDS011;54685;52.082;5.426;2023-03-14T05:45:06;12.30;;;2.92;;
67889;SDS011;54685;52.082;5.426;2023-03-14T05:47:55;17.50;;;3.90;;
67889;SDS011;54685;52.082;5.426;2023-03-14T05:50:48;9.25;;;4.03;;
67889;SDS011;54685;52.082;5.426;2023-03-14T05:53:34;9.73;;;3.47;;
67889;SDS011;54685;52.082;5.426;2023-03-14T05:56:20;9.95;;;3.83;;
67889;SDS011;54685;52.082;5.426;2023-03-14T05:59:10;9.07;;;4.38;;
67889;SDS011;54685;52.082;5.426;2023-03-14T06:01:43;10.15;;;4.20;;
67889;SDS011;54685;52.082;5.426;2023-03-14T06:04:15;11.27;;;4.60;;
67889;SDS011;54685;52.082;5.426;2023-03-14T06:06:46;14.65;;;5.10;;
67889;SDS011;54685;52.082;5.426;2023-03-14T06:09:14;13.85;;;4.95;;
67889;SDS011;54685;52.082;5.426;2023-03-14T06:11:42;13.25;;;5.40;;
67889;SDS011;54685;52.082;5.426;2023-03-14T06:14:10;13.07;;;5.30;;
67889;SDS011;54685;52.082;5.426;2023-03-14T06:16:41;11.25;;;4.95;;
67889;SDS011;54685;52.082;5.426;2023-03-14T06:19:08;17.63;;;5.50;;
67889;SDS011;54685;52.082;5.426;2023-03-14T06:21:36;13.48;;;5.55;;
67889;SDS011;54685;52.082;5.426;2023-03-14T06:24:03;11.75;;;4.93;;
67889;SDS011;54685;52.082;5.426;2023-03-14T06:26:35;12.40;;;5.82;;
67889;SDS011;54685;52.082;5.426;2023-03-14T06:29:02;13.00;;;5.60;;
67889;SDS011;54685;52.082;5.426;2023-03-14T06:31:30;15.63;;;6.45;;
67889;SDS011;54685;52.082;5.426;2023-03-14T06:34:01;14.45;;;6.90;;
67889;SDS011;54685;52.082;5.426;2023-03-14T06:36:30;13.02;;;6.53;;
67889;SDS011;54685;52.082;5.426;2023-03-14T06:38:57;14.13;;;7.00;;
67889;SDS011;54685;52.082;5.426;2023-03-14T06:41:26;21.33;;;7.53;;
67889;SDS011;54685;52.082;5.426;2023-03-14T06:43:53;22.42;;;7.40;;
67889;SDS011;54685;52.082;5.426;2023-03-14T06:46:22;17.35;;;6.90;;
67889;SDS011;54685;52.082;5.426;2023-03-14T06:48:50;11.98;;;4.60;;
67889;SDS011;54685;52.082;5.426;2023-03-14T06:51:16;11.82;;;4.72;;
67889;SDS011;54685;52.082;5.426;2023-03-14T06:53:44;5.20;;;2.50;;
67889;SDS011;54685;52.082;5.426;2023-03-14T06:56:13;4.20;;;2.30;;
67889;SDS011;54685;52.082;5.426;2023-03-14T06:58:41;1.35;;;1.10;;
67889;SDS011;54685;52.082;5.426;2023-03-14T07:01:23;4.57;;;1.60;;
67889;SDS011;54685;52.082;5.426;2023-03-14T07:03:59;1.80;;;1.10;;
67889;SDS011;54685;52.082;5.426;2023-03-14T07:06:27;5.03;;;1.00;;
67889;SDS011;54685;52.082;5.426;2023-03-14T07:08:56;3.60;;;0.80;;
67889;SDS011;54685;52.082;5.426;2023-03-14T07:11:24;1.92;;;0.60;;
67889;SDS011;54685;52.082;5.426;2023-03-14T07:13:53;1.58;;;0.73;;
67889;SDS011;54685;52.082;5.426;2023-03-14T07:16:20;1.88;;;0.80;;
67889;SDS011;54685;52.082;5.426;2023-03-14T07:18:47;4.25;;;0.98;;
67889;SDS011;54685;52.082;5.426;2023-03-14T07:21:16;3.95;;;1.33;;
67889;SDS011;54685;52.082;5.426;2023-03-14T07:23:43;4.40;;;1.10;;
67889;SDS011;54685;52.082;5.426;2023-03-14T07:26:11;3.97;;;1.35;;
67889;SDS011;54685;52.082;5.426;2023-03-14T07:28:44;2.28;;;1.23;;
67889;SDS011;54685;52.082;5.426;2023-03-14T07:31:16;3.97;;;1.63;;
67889;SDS011;54685;52.082;5.426;2023-03-14T07:33:43;5.15;;;1.77;;
67889;SDS011;54685;52.082;5.426;2023-03-14T07:36:10;2.97;;;1.45;;
67889;SDS011;54685;52.082;5.426;2023-03-14T07:38:41;6.13;;;1.90;;
67889;SDS011;54685;52.082;5.426;2023-03-14T07:41:08;4.28;;;0.90;;
67889;SDS011;54685;52.082;5.426;2023-03-14T07:43:42;4.18;;;0.90;;
67889;SDS011;54685;52.082;5.426;2023-03-14T07:46:09;2.83;;;0.98;;
67889;SDS011;54685;52.082;5.426;2023-03-14T07:48:36;2.70;;;0.80;;
67889;SDS011;54685;52.082;5.426;2023-03-14T07:51:03;3.25;;;0.65;;
67889;SDS011;54685;52.082;5.426;2023-03-14T07:53:30;2.13;;;0.70;;
67889;SDS011;54685;52.082;5.426;2023-03-14T07:55:57;3.78;;;0.45;;
67889;SDS011;54685;52.082;5.426;2023-03-14T07:58:24;4.28;;;0.93;;
67889;SDS011;54685;52.082;5.426;2023-03-14T08:00:52;3.13;;;0.57;;
67889;SDS011;54685;52.082;5.426;2023-03-14T08:03:19;2.10;;;0.82;;
67889;SDS011;54685;52.082;5.426;2023-03-14T08:05:49;5.13;;;0.80;;
67889;SDS011;54685;52.082;5.426;2023-03-14T08:08:17;3.30;;;0.70;;
67889;SDS011;54685;52.082;5.426;2023-03-14T08:10:44;5.05;;;0.98;;
67889;SDS011;54685;52.082;5.426;2023-03-14T08:13:12;6.25;;;0.80;;
67889;SDS011;54685;52.082;5.426;2023-03-14T08:15:39;6.30;;;1.08;;
67889;SDS011;54685;52.082;5.426;2023-03-14T08:18:06;4.57;;;1.10;;
67889;SDS011;54685;52.082;5.426;2023-03-14T08:20:33;8.63;;;1.15;;
67889;SDS011;54685;52.082;5.426;2023-03-14T08:23:02;8.00;;;1.80;;
67889;SDS011;54685;52.082;5.426;2023-03-14T08:25:30;4.57;;;0.90;;
67889;SDS011;54685;52.082;5.426;2023-03-14T08:27:57;11.35;;;1.25;;
67889;SDS011;54685;52.082;5.426;2023-03-14T08:30:24;11.40;;;0.90;;
67889;SDS011;54685;52.082;5.426;2023-03-14T08:32:51;5.13;;;0.90;;
67889;SDS011;54685;52.082;5.426;2023-03-14T08:35:18;10.98;;;1.23;;
67889;SDS011;54685;52.082;5.426;2023-03-14T08:37:47;2.10;;;0.30;;
67889;SDS011;54685;52.082;5.426;2023-03-14T08:40:14;13.45;;;1.27;;
67889;SDS011;54685;52.082;5.426;2023-03-14T08:42:43;9.55;;;0.80;;
67889;SDS011;54685;52.082;5.426;2023-03-14T08:45:11;7.15;;;0.85;;
67889;SDS011;54685;52.082;5.426;2023-03-14T08:47:39;3.70;;;0.47;;
67889;SDS011;54685;52.082;5.426;2023-03-14T08:50:06;4.53;;;0.70;;
67889;SDS011;54685;52.082;5.426;2023-03-14T08:52:35;3.50;;;0.50;;
67889;SDS011;54685;52.082;5.426;2023-03-14T08:55:04;6.88;;;0.65;;
67889;SDS011;54685;52.082;5.426;2023-03-14T08:57:31;5.90;;;0.70;;
67889;SDS011;54685;52.082;5.426;2023-03-14T08:59:58;3.78;;;0.75;;
67889;SDS011;54685;52.082;5.426;2023-03-14T09:02:25;7.68;;;1.10;;
67889;SDS011;54685;52.082;5.426;2023-03-14T09:04:52;4.38;;;1.10;;
67889;SDS011;54685;52.082;5.426;2023-03-14T09:07:19;9.55;;;1.40;;
67889;SDS011;54685;52.082;5.426;2023-03-14T09:09:46;4.75;;;1.08;;
67889;SDS011;54685;52.082;5.426;2023-03-14T09:12:13;10.30;;;1.55;;
67889;SDS011;54685;52.082;5.426;2023-03-14T09:14:40;9.55;;;1.35;;
67889;SDS011;54685;52.082;5.426;2023-03-14T09:17:07;9.65;;;1.60;;
67889;SDS011;54685;52.082;5.426;2023-03-14T09:19:34;7.13;;;1.08;;
67889;SDS011;54685;52.082;5.426;2023-03-14T09:22:01;16.10;;;1.40;;
67889;SDS011;54685;52.082;5.426;2023-03-14T09:24:29;11.40;;;1.67;;
67889;SDS011;54685;52.082;5.426;2023-03-14T09:26:56;9.50;;;1.27;;
67889;SDS011;54685;52.082;5.426;2023-03-14T09:29:23;11.32;;;1.52;;
67889;SDS011;54685;52.082;5.426;2023-03-14T09:31:51;20.35;;;2.78;;
67889;SDS011;54685;52.082;5.426;2023-03-14T09:34:18;12.30;;;1.88;;
67889;SDS011;54685;52.082;5.426;2023-03-14T09:36:45;9.45;;;1.90;;
67889;SDS011;54685;52.082;5.426;2023-03-14T09:39:12;17.50;;;2.53;;
67889;SDS011;54685;52.082;5.426;2023-03-14T09:41:40;13.63;;;2.00;;
67889;SDS011;54685;52.082;5.426;2023-03-14T09:44:11;14.80;;;1.67;;
67889;SDS011;54685;52.082;5.426;2023-03-14T09:46:42;8.40;;;1.77;;
67889;SDS011;54685;52.082;5.426;2023-03-14T09:51:46;14.88;;;2.05;;
67889;SDS011;54685;52.082;5.426;2023-03-14T09:57:21;19.60;;;2.28;;
67889;SDS011;54685;52.082;5.426;2023-03-14T09:59:50;30.52;;;2.92;;
67889;SDS011;54685;52.082;5.426;2023-03-14T10:02:32;14.57;;;2.28;;
67889;SDS011;54685;52.082;5.426;2023-03-14T10:05:01;17.88;;;2.42;;
67889;SDS011;54685;52.082;5.426;2023-03-14T10:07:32;16.20;;;2.25;;
67889;SDS011;54685;52.082;5.426;2023-03-14T10:10:00;14.82;;;2.60;;
67889;SDS011;54685;52.082;5.426;2023-03-14T10:12:31;19.63;;;2.42;;
67889;SDS011;54685;52.082;5.426;2023-03-14T10:15:02;19.58;;;2.40;;
67889;SDS011;54685;52.082;5.426;2023-03-14T10:17:42;21.38;;;2.80;;
67889;SDS011;54685;52.082;5.426;2023-03-14T10:21:01;19.75;;;2.38;;
67889;SDS011;54685;52.082;5.426;2023-03-14T10:23:04;25.42;;;2.80;;
67889;SDS011;54685;52.082;5.426;2023-03-14T10:31:15;23.60;;;3.10;;
67889;SDS011;54685;52.082;5.426;2023-03-14T10:33:42;17.75;;;2.53;;
67889;SDS011;54685;52.082;5.426;2023-03-14T10:36:33;24.80;;;3.95;;
67889;SDS011;54685;52.082;5.426;2023-03-14T10:39:18;17.45;;;2.80;;
67889;SDS011;54685;52.082;5.426;2023-03-14T10:42:34;21.30;;;3.08;;
67889;SDS011;54685;52.082;5.426;2023-03-14T10:44:41;27.05;;;3.22;;
67889;SDS011;54685;52.082;5.426;2023-03-14T10:47:15;27.08;;;3.60;;
67889;SDS011;54685;52.082;5.426;2023-03-14T10:49:44;24.42;;;3.38;;
67889;SDS011;54685;52.082;5.426;2023-03-14T10:52:17;21.42;;;4.25;;
67889;SDS011;54685;52.082;5.426;2023-03-14T10:55:10;20.17;;;2.70;;
67889;SDS011;54685;52.082;5.426;2023-03-14T10:57:39;21.17;;;2.88;;
67889;SDS011;54685;52.082;5.426;2023-03-14T11:00:14;22.83;;;3.22;;
67889;SDS011;54685;52.082;5.426;2023-03-14T11:02:54;24.27;;;3.15;;
67889;SDS011;54685;52.082;5.426;2023-03-14T11:11:15;24.52;;;2.92;;
67889;SDS011;54685;52.082;5.426;2023-03-14T11:40:59;19.95;;;3.38;;
67889;SDS011;54685;52.082;5.426;2023-03-14T11:43:34;19.33;;;3.45;;
67889;SDS011;54685;52.082;5.426;2023-03-14T11:46:10;20.83;;;2.97;;
67889;SDS011;54685;52.082;5.426;2023-03-14T11:51:50;15.10;;;2.58;;
67889;SDS011;54685;52.082;5.426;2023-03-14T11:56:59;17.80;;;2.22;;
67889;SDS011;54685;52.082;5.426;2023-03-14T11:59:38;17.90;;;2.92;;
67889;SDS011;54685;52.082;5.426;2023-03-14T12:02:25;14.73;;;2.67;;
67889;SDS011;54685;52.082;5.426;2023-03-14T12:10:12;12.82;;;2.28;;
67889;SDS011;54685;52.082;5.426;2023-03-14T12:12:39;8.55;;;2.03;;
67889;SDS011;54685;52.082;5.426;2023-03-14T12:15:15;18.60;;;2.47;;
67889;SDS011;54685;52.082;5.426;2023-03-14T12:17:46;9.90;;;2.28;;
67889;SDS011;54685;52.082;5.426;2023-03-14T12:20:25;16.55;;;2.30;;
67889;SDS011;54685;52.082;5.426;2023-03-14T12:22:53;11.35;;;2.28;;
67889;SDS011;54685;52.082;5.426;2023-03-14T12:25:26;10.88;;;2.50;;
67889;SDS011;54685;52.082;5.426;2023-03-14T12:35:36;13.27;;;2.10;;
67889;SDS011;54685;52.082;5.426;2023-03-14T12:41:11;17.15;;;2.45;;
67889;SDS011;54685;52.082;5.426;2023-03-14T12:43:42;7.70;;;1.92;;
67889;SDS011;54685;52.082;5.426;2023-03-14T12:49:03;10.00;;;2.10;;
67889;SDS011;54685;52.082;5.426;2023-03-14T12:59:17;6.43;;;1.70;;
67889;SDS011;54685;52.082;5.426;2023-03-14T13:01:59;10.00;;;1.58;;
67889;SDS011;54685;52.082;5.426;2023-03-14T13:04:36;11.40;;;1.88;;
67889;SDS011;54685;52.082;5.426;2023-03-14T13:07:29;6.30;;;1.30;;
67889;SDS011;54685;52.082;5.426;2023-03-14T13:10:00;5.70;;;1.50;;
67889;SDS011;54685;52.082;5.426;2023-03-14T13:12:46;7.95;;;1.50;;
67889;SDS011;54685;52.082;5.426;2023-03-14T13:18:10;7.68;;;1.60;;
67889;SDS011;54685;52.082;5.426;2023-03-14T13:21:12;6.90;;;1.42;;
67889;SDS011;54685;52.082;5.426;2023-03-14T13:24:00;10.20;;;1.70;;
67889;SDS011;54685;52.082;5.426;2023-03-14T13:26:39;8.38;;;1.80;;
67889;SDS011;54685;52.082;5.426;2023-03-14T13:31:53;8.82;;;1.48;;
67889;SDS011;54685;52.082;5.426;2023-03-14T13:34:25;10.73;;;1.60;;
67889;SDS011;54685;52.082;5.426;2023-03-14T13:36:57;7.40;;;1.52;;
67889;SDS011;54685;52.082;5.426;2023-03-14T13:39:26;6.05;;;1.25;;
67889;SDS011;54685;52.082;5.426;2023-03-14T13:41:58;8.20;;;1.80;;
67889;SDS011;54685;52.082;5.426;2023-03-14T13:44:29;8.43;;;1.40;;
67889;SDS011;54685;52.082;5.426;2023-03-14T13:46:59;6.00;;;1.40;;
67889;SDS011;54685;52.082;5.426;2023-03-14T13:49:31;8.02;;;1.50;;
67889;SDS011;54685;52.082;5.426;2023-03-14T13:52:02;8.95;;;1.65;;
67889;SDS011;54685;52.082;5.426;2023-03-14T13:54:48;10.00;;;1.83;;
67889;SDS011;54685;52.082;5.426;2023-03-14T13:57:20;7.47;;;1.60;;
67889;SDS011;54685;52.082;5.426;2023-03-14T14:00:04;9.45;;;1.70;;
67889;SDS011;54685;52.082;5.426;2023-03-14T14:02:38;4.43;;;1.15;;
67889;SDS011;54685;52.082;5.426;2023-03-14T14:05:06;7.97;;;1.70;;
67889;SDS011;54685;52.082;5.426;2023-03-14T14:07:36;9.23;;;1.35;;
67889;SDS011;54685;52.082;5.426;2023-03-14T14:10:04;13.40;;;2.60;;
67889;SDS011;54685;52.082;5.426;2023-03-14T14:12:37;11.48;;;2.05;;
67889;SDS011;54685;52.082;5.426;2023-03-14T14:15:11;12.00;;;1.90;;
67889;SDS011;54685;52.082;5.426;2023-03-14T14:20:42;10.23;;;1.98;;
67889;SDS011;54685;52.082;5.426;2023-03-14T14:23:24;9.23;;;2.13;;
67889;SDS011;54685;52.082;5.426;2023-03-14T14:25:55;9.55;;;1.77;;
67889;SDS011;54685;52.082;5.426;2023-03-14T14:33:39;5.43;;;1.55;;
67889;SDS011;54685;52.082;5.426;2023-03-14T14:41:39;7.65;;;1.70;;
67889;SDS011;54685;52.082;5.426;2023-03-14T14:44:10;8.63;;;1.60;;
67889;SDS011;54685;52.082;5.426;2023-03-14T14:46:40;12.30;;;1.65;;
67889;SDS011;54685;52.082;5.426;2023-03-14T14:49:12;10.77;;;1.65;;
67889;SDS011;54685;52.082;5.426;2023-03-14T14:51:43;7.22;;;1.40;;
67889;SDS011;54685;52.082;5.426;2023-03-14T14:54:15;4.97;;;1.08;;
67889;SDS011;54685;52.082;5.426;2023-03-14T14:57:01;11.52;;;1.60;;
67889;SDS011;54685;52.082;5.426;2023-03-14T14:59:30;4.32;;;0.98;;
67889;SDS011;54685;52.082;5.426;2023-03-14T15:01:58;9.68;;;1.30;;
67889;SDS011;54685;52.082;5.426;2023-03-14T15:04:29;5.78;;;0.95;;
67889;SDS011;54685;52.082;5.426;2023-03-14T15:06:57;7.97;;;1.30;;
67889;SDS011;54685;52.082;5.426;2023-03-14T15:09:25;8.98;;;1.60;;
67889;SDS011;54685;52.082;5.426;2023-03-14T15:11:52;5.57;;;1.00;;
67889;SDS011;54685;52.082;5.426;2023-03-14T15:14:19;4.72;;;1.40;;
67889;SDS011;54685;52.082;5.426;2023-03-14T15:16:47;7.40;;;1.38;;
67889;SDS011;54685;52.082;5.426;2023-03-14T15:19:21;7.60;;;1.98;;
67889;SDS011;54685;52.082;5.426;2023-03-14T15:21:51;8.10;;;1.80;;
67889;SDS011;54685;52.082;5.426;2023-03-14T15:24:19;10.38;;;1.60;;
67889;SDS011;54685;52.082;5.426;2023-03-14T15:26:47;11.55;;;1.77;;
67889;SDS011;54685;52.082;5.426;2023-03-14T15:29:14;9.00;;;1.58;;
67889;SDS011;54685;52.082;5.426;2023-03-14T15:31:42;7.18;;;1.80;;
67889;SDS011;54685;52.082;5.426;2023-03-14T15:34:10;7.55;;;1.30;;
67889;SDS011;54685;52.082;5.426;2023-03-14T15:36:37;5.78;;;1.63;;
67889;SDS011;54685;52.082;5.426;2023-03-14T15:39:06;12.30;;;1.50;;
67889;SDS011;54685;52.082;5.426;2023-03-14T15:41:33;7.50;;;1.38;;
67889;SDS011;54685;52.082;5.426;2023-03-14T15:44:01;7.75;;;1.50;;
67889;SDS011;54685;52.082;5.426;2023-03-14T15:46:29;7.32;;;1.45;;
67889;SDS011;54685;52.082;5.426;2023-03-14T15:48:57;10.55;;;1.48;;
67889;SDS011;54685;52.082;5.426;2023-03-14T15:51:24;8.45;;;1.45;;
67889;SDS011;54685;52.082;5.426;2023-03-14T15:53:51;9.23;;;1.52;;
67889;SDS011;54685;52.082;5.426;2023-03-14T15:56:19;5.63;;;1.17;;
67889;SDS011;54685;52.082;5.426;2023-03-14T15:58:47;5.15;;;1.25;;
67889;SDS011;54685;52.082;5.426;2023-03-14T16:01:15;10.10;;;1.73;;
67889;SDS011;54685;52.082;5.426;2023-03-14T16:03:43;6.38;;;1.08;;
67889;SDS011;54685;52.082;5.426;2023-03-14T16:08:43;7.13;;;1.42;;
67889;SDS011;54685;52.082;5.426;2023-03-14T16:11:11;5.75;;;1.70;;
67889;SDS011;54685;52.082;5.426;2023-03-14T16:13:40;9.48;;;1.40;;
67889;SDS011;54685;52.082;5.426;2023-03-14T16:16:08;8.15;;;1.70;;
67889;SDS011;54685;52.082;5.426;2023-03-14T16:18:36;7.53;;;1.80;;
67889;SDS011;54685;52.082;5.426;2023-03-14T16:21:06;8.35;;;1.42;;
67889;SDS011;54685;52.082;5.426;2023-03-14T16:23:44;6.60;;;1.75;;
67889;SDS011;54685;52.082;5.426;2023-03-14T16:26:12;6.20;;;1.65;;
67889;SDS011;54685;52.082;5.426;2023-03-14T16:28:43;8.02;;;1.85;;
67889;SDS011;54685;52.082;5.426;2023-03-14T16:31:12;9.98;;;1.75;;
67889;SDS011;54685;52.082;5.426;2023-03-14T16:33:42;10.75;;;2.22;;
67889;SDS011;54685;52.082;5.426;2023-03-14T16:36:10;12.45;;;2.55;;
67889;SDS011;54685;52.082;5.426;2023-03-14T16:38:39;11.38;;;2.10;;
67889;SDS011;54685;52.082;5.426;2023-03-14T16:41:17;11.73;;;2.10;;
67889;SDS011;54685;52.082;5.426;2023-03-14T16:43:45;9.60;;;1.80;;
67889;SDS011;54685;52.082;5.426;2023-03-14T16:46:17;12.10;;;2.47;;
67889;SDS011;54685;52.082;5.426;2023-03-14T16:48:48;14.18;;;3.50;;
67889;SDS011;54685;52.082;5.426;2023-03-14T16:51:15;12.75;;;2.58;;
67889;SDS011;54685;52.082;5.426;2023-03-14T16:53:43;11.07;;;1.90;;